Terminal Aerodrome Forecast
Issued by NWS

Home | Current Version | Previous Version | Text Only | Print | Product List | Glossary On
Versions: 1 2 3 4 5 6 7 8 9 10 11 12 13 14 15 16 17 18 19 20 21 22 23 24 25 26 27 28 29 30 31 32 33 34 35 36 37 38 39 40 41 42 43 44 45 46 47 48 49 50
000
FTUS45 KBOU 061504 AAC
TAFAPA
TAF AMD
KAPA 061504Z 0615/0712 03008KT P6SM VCSH BKN005 BKN014 OVC025
      TEMPO 0615/0619 -SHRA SCT005 OVC020
     FM061900 05009KT P6SM VCTS SCT035CB BKN050
      TEMPO 0621/0701 -SHRA BKN035
     FM070200 08008KT P6SM VCSH SCT040 BKN070
     FM071000 14007KT P6SM SCT025 BKN040=

USA.gov is the U.S. government's official web portal to all federal, state and local government web resources and services.